sensor_id;sensor_type;location;lat;lon;timestamp;temperature;humidity
14884;DHT22;7534;50.762;7.000;2023-04-03T00:00:29;5.40;99.90
14884;DHT22;7534;50.762;7.000;2023-04-03T00:02:56;5.40;99.90
14884;DHT22;7534;50.762;7.000;2023-04-03T00:05:21;5.50;99.90
14884;DHT22;7534;50.762;7.000;2023-04-03T00:07:47;5.60;99.90
14884;DHT22;7534;50.762;7.000;2023-04-03T00:10:15;5.60;99.90
14884;DHT22;7534;50.762;7.000;2023-04-03T00:12:41;5.60;99.90
14884;DHT22;7534;50.762;7.000;2023-04-03T00:15:08;5.60;99.90
14884;DHT22;7534;50.762;7.000;2023-04-03T00:17:34;5.60;99.90
14884;DHT22;7534;50.762;7.000;2023-04-03T00:20:00;5.60;99.90
14884;DHT22;7534;50.762;7.000;2023-04-03T00:22:26;5.60;99.90
14884;DHT22;7534;50.762;7.000;2023-04-03T00:24:54;5.60;99.90
14884;DHT22;7534;50.762;7.000;2023-04-03T00:27:20;5.70;99.90
14884;DHT22;7534;50.762;7.000;2023-04-03T00:29:46;5.60;99.90
14884;DHT22;7534;50.762;7.000;2023-04-03T00:32:11;5.70;99.90
14884;DHT22;7534;50.762;7.000;2023-04-03T00:34:37;5.60;99.90
14884;DHT22;7534;50.762;7.000;2023-04-03T00:37:02;5.70;99.90
14884;DHT22;7534;50.762;7.000;2023-04-03T00:39:28;5.60;99.90
14884;DHT22;7534;50.762;7.000;2023-04-03T00:41:54;5.70;99.90
14884;DHT22;7534;50.762;7.000;2023-04-03T00:47:09;5.90;99.80
14884;DHT22;7534;50.762;7.000;2023-04-03T00:49:38;5.90;99.80
14884;DHT22;7534;50.762;7.000;2023-04-03T00:52:13;5.90;99.70
14884;DHT22;7534;50.762;7.000;2023-04-03T00:54:42;5.90;99.70
14884;DHT22;7534;50.762;7.000;2023-04-03T00:57:11;5.90;99.70
14884;DHT22;7534;50.762;7.000;2023-04-03T00:59:44;5.90;99.90
14884;DHT22;7534;50.762;7.000;2023-04-03T01:02:14;5.90;99.90
14884;DHT22;7534;50.762;7.000;2023-04-03T01:04:42;6.00;99.90
14884;DHT22;7534;50.762;7.000;2023-04-03T01:07:11;5.90;99.80
14884;DHT22;7534;50.762;7.000;2023-04-03T01:09:42;5.90;99.80
14884;DHT22;7534;50.762;7.000;2023-04-03T01:12:18;5.90;99.80
14884;DHT22;7534;50.762;7.000;2023-04-03T01:14:48;5.80;99.80
14884;DHT22;7534;50.762;7.000;2023-04-03T01:17:38;5.80;99.90
14884;DHT22;7534;50.762;7.000;2023-04-03T01:20:22;5.80;99.90
14884;DHT22;7534;50.762;7.000;2023-04-03T01:25:37;5.70;99.90
14884;DHT22;7534;50.762;7.000;2023-04-03T01:28:04;5.70;99.90
14884;DHT22;7534;50.762;7.000;2023-04-03T01:31:14;5.60;99.90
14884;DHT22;7534;50.762;7.000;2023-04-03T01:33:53;5.60;99.90
14884;DHT22;7534;50.762;7.000;2023-04-03T01:36:26;5.60;99.90
14884;DHT22;7534;50.762;7.000;2023-04-03T01:38:54;5.60;99.90
14884;DHT22;7534;50.762;7.000;2023-04-03T01:41:21;5.50;99.90
14884;DHT22;7534;50.762;7.000;2023-04-03T01:43:48;5.50;99.90
14884;DHT22;7534;50.762;7.000;2023-04-03T01:46:16;5.40;99.90
14884;DHT22;7534;50.762;7.000;2023-04-03T01:48:42;5.40;99.90
14884;DHT22;7534;50.762;7.000;2023-04-03T01:51:08;5.40;99.90
14884;DHT22;7534;50.762;7.000;2023-04-03T01:53:34;5.30;99.90
14884;DHT22;7534;50.762;7.000;2023-04-03T01:55:59;5.20;99.90
14884;DHT22;7534;50.762;7.000;2023-04-03T01:58:25;5.00;99.90
14884;DHT22;7534;50.762;7.000;2023-04-03T02:00:51;4.90;99.90
14884;DHT22;7534;50.762;7.000;2023-04-03T02:03:17;4.80;99.90
14884;DHT22;7534;50.762;7.000;2023-04-03T02:05:43;4.70;99.90
14884;DHT22;7534;50.762;7.000;2023-04-03T02:08:10;4.60;99.90
14884;DHT22;7534;50.762;7.000;2023-04-03T02:10:35;4.50;99.90
14884;DHT22;7534;50.762;7.000;2023-04-03T02:13:01;4.50;99.90
14884;DHT22;7534;50.762;7.000;2023-04-03T02:15:27;4.40;99.90
14884;DHT22;7534;50.762;7.000;2023-04-03T02:17:53;4.30;99.90
14884;DHT22;7534;50.762;7.000;2023-04-03T02:20:18;4.30;99.90
14884;DHT22;7534;50.762;7.000;2023-04-03T02:22:44;4.30;99.90
14884;DHT22;7534;50.762;7.000;2023-04-03T02:25:10;4.30;99.90
14884;DHT22;7534;50.762;7.000;2023-04-03T02:27:37;4.30;99.90
14884;DHT22;7534;50.762;7.000;2023-04-03T02:30:03;4.30;99.90
14884;DHT22;7534;50.762;7.000;2023-04-03T02:32:30;4.30;99.90
14884;DHT22;7534;50.762;7.000;2023-04-03T02:34:56;4.20;99.90
14884;DHT22;7534;50.762;7.000;2023-04-03T02:37:23;4.20;99.90
14884;DHT22;7534;50.762;7.000;2023-04-03T02:39:49;4.20;99.90
14884;DHT22;7534;50.762;7.000;2023-04-03T02:42:14;4.10;99.90
14884;DHT22;7534;50.762;7.000;2023-04-03T02:44:40;4.10;99.90
14884;DHT22;7534;50.762;7.000;2023-04-03T02:47:06;4.00;99.90
14884;DHT22;7534;50.762;7.000;2023-04-03T02:49:31;3.90;99.90
14884;DHT22;7534;50.762;7.000;2023-04-03T02:51:57;3.90;99.90
14884;DHT22;7534;50.762;7.000;2023-04-03T02:54:23;3.80;99.90
14884;DHT22;7534;50.762;7.000;2023-04-03T02:56:52;3.80;99.90
14884;DHT22;7534;50.762;7.000;2023-04-03T02:59:18;3.70;99.90
14884;DHT22;7534;50.762;7.000;2023-04-03T03:01:44;3.60;99.90
14884;DHT22;7534;50.762;7.000;2023-04-03T03:04:09;3.60;99.90
14884;DHT22;7534;50.762;7.000;2023-04-03T03:06:35;3.60;99.90
14884;DHT22;7534;50.762;7.000;2023-04-03T03:09:01;3.60;99.90
14884;DHT22;7534;50.762;7.000;2023-04-03T03:11:26;3.50;99.90
14884;DHT22;7534;50.762;7.000;2023-04-03T03:13:52;3.40;99.90
14884;DHT22;7534;50.762;7.000;2023-04-03T03:16:18;3.40;99.90
14884;DHT22;7534;50.762;7.000;2023-04-03T03:18:44;3.30;99.90
14884;DHT22;7534;50.762;7.000;2023-04-03T03:21:10;3.30;99.90
14884;DHT22;7534;50.762;7.000;2023-04-03T03:23:36;3.20;99.90
14884;DHT22;7534;50.762;7.000;2023-04-03T03:26:04;3.10;99.90
14884;DHT22;7534;50.762;7.000;2023-04-03T03:28:32;3.10;99.90
14884;DHT22;7534;50.762;7.000;2023-04-03T03:30:59;3.10;99.90
14884;DHT22;7534;50.762;7.000;2023-04-03T03:33:26;3.10;99.90
14884;DHT22;7534;50.762;7.000;2023-04-03T03:35:53;3.10;99.90
14884;DHT22;7534;50.762;7.000;2023-04-03T03:38:19;3.00;99.90
14884;DHT22;7534;50.762;7.000;2023-04-03T03:40:50;3.00;99.90
14884;DHT22;7534;50.762;7.000;2023-04-03T03:43:17;2.90;99.90
14884;DHT22;7534;50.762;7.000;2023-04-03T03:45:44;2.90;99.90
14884;DHT22;7534;50.762;7.000;2023-04-03T03:48:11;2.80;99.90
14884;DHT22;7534;50.762;7.000;2023-04-03T03:50:36;2.70;99.90
14884;DHT22;7534;50.762;7.000;2023-04-03T03:53:02;2.70;99.90
14884;DHT22;7534;50.762;7.000;2023-04-03T03:55:28;2.50;99.90
14884;DHT22;7534;50.762;7.000;2023-04-03T03:57:53;2.50;99.90
14884;DHT22;7534;50.762;7.000;2023-04-03T04:00:19;2.40;99.90
14884;DHT22;7534;50.762;7.000;2023-04-03T04:02:45;2.30;99.90
14884;DHT22;7534;50.762;7.000;2023-04-03T04:05:11;2.30;99.90
14884;DHT22;7534;50.762;7.000;2023-04-03T04:07:37;2.20;99.90
14884;DHT22;7534;50.762;7.000;2023-04-03T04:10:03;2.20;99.90
14884;DHT22;7534;50.762;7.000;2023-04-03T04:12:29;2.20;99.90
14884;DHT22;7534;50.762;7.000;2023-04-03T04:14:55;2.10;99.90
14884;DHT22;7534;50.762;7.000;2023-04-03T04:17:21;2.00;99.90
14884;DHT22;7534;50.762;7.000;2023-04-03T04:19:47;1.90;99.90
14884;DHT22;7534;50.762;7.000;2023-04-03T04:22:12;1.90;99.90
14884;DHT22;7534;50.762;7.000;2023-04-03T04:24:38;1.80;99.90
14884;DHT22;7534;50.762;7.000;2023-04-03T04:27:04;1.70;99.90
14884;DHT22;7534;50.762;7.000;2023-04-03T04:29:29;1.70;99.90
14884;DHT22;7534;50.762;7.000;2023-04-03T04:32:00;1.60;99.90
14884;DHT22;7534;50.762;7.000;2023-04-03T04:34:26;1.60;99.90
14884;DHT22;7534;50.762;7.000;2023-04-03T04:36:51;1.50;99.90
14884;DHT22;7534;50.762;7.000;2023-04-03T04:39:17;1.50;99.90
14884;DHT22;7534;50.762;7.000;2023-04-03T04:41:43;1.40;99.90
14884;DHT22;7534;50.762;7.000;2023-04-03T04:44:09;1.40;99.90
14884;DHT22;7534;50.762;7.000;2023-04-03T04:46:39;1.30;99.90
14884;DHT22;7534;50.762;7.000;2023-04-03T04:49:05;1.30;99.90
14884;DHT22;7534;50.762;7.000;2023-04-03T04:51:30;1.30;99.90
14884;DHT22;7534;50.762;7.000;2023-04-03T04:53:56;1.40;99.90
14884;DHT22;7534;50.762;7.000;2023-04-03T04:56:22;1.40;99.90
14884;DHT22;7534;50.762;7.000;2023-04-03T04:58:47;1.40;99.90
14884;DHT22;7534;50.762;7.000;2023-04-03T05:01:13;1.40;99.90
14884;DHT22;7534;50.762;7.000;2023-04-03T05:03:39;1.30;99.90
14884;DHT22;7534;50.762;7.000;2023-04-03T05:06:05;1.40;99.90
14884;DHT22;7534;50.762;7.000;2023-04-03T05:08:31;1.40;99.90
14884;DHT22;7534;50.762;7.000;2023-04-03T05:10:56;1.40;99.90
14884;DHT22;7534;50.762;7.000;2023-04-03T05:13:22;1.40;99.90
14884;DHT22;7534;50.762;7.000;2023-04-03T05:15:48;1.40;99.90
14884;DHT22;7534;50.762;7.000;2023-04-03T05:18:14;1.40;99.90
14884;DHT22;7534;50.762;7.000;2023-04-03T05:20:40;1.40;99.90
14884;DHT22;7534;50.762;7.000;2023-04-03T05:23:06;1.40;99.90
14884;DHT22;7534;50.762;7.000;2023-04-03T05:25:31;1.50;99.90
14884;DHT22;7534;50.762;7.000;2023-04-03T05:27:57;1.60;99.90
14884;DHT22;7534;50.762;7.000;2023-04-03T05:30:23;1.60;99.90
14884;DHT22;7534;50.762;7.000;2023-04-03T05:32:49;1.70;99.90
14884;DHT22;7534;50.762;7.000;2023-04-03T05:35:14;1.70;99.90
14884;DHT22;7534;50.762;7.000;2023-04-03T05:37:40;1.70;99.90
14884;DHT22;7534;50.762;7.000;2023-04-03T05:40:07;1.80;99.90
14884;DHT22;7534;50.762;7.000;2023-04-03T05:42:33;1.90;99.90
14884;DHT22;7534;50.762;7.000;2023-04-03T05:44:59;1.90;99.90
14884;DHT22;7534;50.762;7.000;2023-04-03T05:47:25;2.00;99.90
14884;DHT22;7534;50.762;7.000;2023-04-03T05:49:50;2.10;99.90
14884;DHT22;7534;50.762;7.000;2023-04-03T05:52:35;2.20;99.90
14884;DHT22;7534;50.762;7.000;2023-04-03T05:55:02;2.40;99.90
14884;DHT22;7534;50.762;7.000;2023-04-03T05:57:28;2.70;99.90
14884;DHT22;7534;50.762;7.000;2023-04-03T05:59:54;3.30;99.90
14884;DHT22;7534;50.762;7.000;2023-04-03T06:02:22;3.90;99.90
14884;DHT22;7534;50.762;7.000;2023-04-03T06:04:49;4.80;99.90
14884;DHT22;7534;50.762;7.000;2023-04-03T06:07:18;5.50;99.90
14884;DHT22;7534;50.762;7.000;2023-04-03T06:09:49;6.20;99.90
14884;DHT22;7534;50.762;7.000;2023-04-03T06:12:16;6.50;99.90
14884;DHT22;7534;50.762;7.000;2023-04-03T06:14:43;6.60;99.90
14884;DHT22;7534;50.762;7.000;2023-04-03T06:17:08;7.10;99.90
14884;DHT22;7534;50.762;7.000;2023-04-03T06:19:35;7.60;99.90
14884;DHT22;7534;50.762;7.000;2023-04-03T06:22:01;8.40;99.90
14884;DHT22;7534;50.762;7.000;2023-04-03T06:24:30;9.30;99.70
14884;DHT22;7534;50.762;7.000;2023-04-03T06:26:56;10.20;94.00
14884;DHT22;7534;50.762;7.000;2023-04-03T06:29:23;10.80;90.50
14884;DHT22;7534;50.762;7.000;2023-04-03T06:31:50;11.10;85.80
14884;DHT22;7534;50.762;7.000;2023-04-03T06:34:16;12.10;86.40
14884;DHT22;7534;50.762;7.000;2023-04-03T06:36:44;13.60;84.30
14884;DHT22;7534;50.762;7.000;2023-04-03T06:39:19;15.80;78.00
14884;DHT22;7534;50.762;7.000;2023-04-03T06:41:47;17.80;69.10
14884;DHT22;7534;50.762;7.000;2023-04-03T06:44:13;19.50;54.60
14884;DHT22;7534;50.762;7.000;2023-04-03T06:46:41;20.60;51.60
14884;DHT22;7534;50.762;7.000;2023-04-03T06:49:08;21.80;44.50
14884;DHT22;7534;50.762;7.000;2023-04-03T06:51:35;20.80;44.40
14884;DHT22;7534;50.762;7.000;2023-04-03T06:54:03;20.30;42.90
14884;DHT22;7534;50.762;7.000;2023-04-03T06:56:29;20.30;42.00
14884;DHT22;7534;50.762;7.000;2023-04-03T06:58:55;20.80;40.90
14884;DHT22;7534;50.762;7.000;2023-04-03T07:01:24;20.70;39.40
14884;DHT22;7534;50.762;7.000;2023-04-03T07:03:53;19.60;39.10
14884;DHT22;7534;50.762;7.000;2023-04-03T07:06:20;17.80;42.10
14884;DHT22;7534;50.762;7.000;2023-04-03T07:08:47;17.30;45.10
14884;DHT22;7534;50.762;7.000;2023-04-03T07:11:14;18.50;43.70
14884;DHT22;7534;50.762;7.000;2023-04-03T07:13:40;19.40;42.20
14884;DHT22;7534;50.762;7.000;2023-04-03T07:16:12;18.80;40.70
14884;DHT22;7534;50.762;7.000;2023-04-03T07:18:37;17.40;40.80
14884;DHT22;7534;50.762;7.000;2023-04-03T07:21:03;16.10;44.20
14884;DHT22;7534;50.762;7.000;2023-04-03T07:23:30;15.30;47.20
14884;DHT22;7534;50.762;7.000;2023-04-03T07:25:56;15.80;47.50
14884;DHT22;7534;50.762;7.000;2023-04-03T07:28:22;15.10;48.10
14884;DHT22;7534;50.762;7.000;2023-04-03T07:30:51;15.40;49.20
14884;DHT22;7534;50.762;7.000;2023-04-03T07:33:20;15.00;48.50
14884;DHT22;7534;50.762;7.000;2023-04-03T07:35:48;14.90;50.10
14884;DHT22;7534;50.762;7.000;2023-04-03T07:38:14;14.90;51.10
14884;DHT22;7534;50.762;7.000;2023-04-03T07:40:46;15.00;50.30
14884;DHT22;7534;50.762;7.000;2023-04-03T07:43:14;14.70;51.40
14884;DHT22;7534;50.762;7.000;2023-04-03T07:45:41;15.20;50.20
14884;DHT22;7534;50.762;7.000;2023-04-03T07:48:14;15.20;49.90
14884;DHT22;7534;50.762;7.000;2023-04-03T07:50:46;15.30;49.90
14884;DHT22;7534;50.762;7.000;2023-04-03T07:53:12;14.70;50.60
14884;DHT22;7534;50.762;7.000;2023-04-03T07:55:39;14.70;51.30
14884;DHT22;7534;50.762;7.000;2023-04-03T07:58:17;14.80;50.60
14884;DHT22;7534;50.762;7.000;2023-04-03T08:00:43;15.60;49.70
14884;DHT22;7534;50.762;7.000;2023-04-03T08:03:11;15.70;49.10
14884;DHT22;7534;50.762;7.000;2023-04-03T08:05:40;15.60;48.60
14884;DHT22;7534;50.762;7.000;2023-04-03T08:08:07;15.30;49.70
14884;DHT22;7534;50.762;7.000;2023-04-03T08:10:34;15.80;48.40
14884;DHT22;7534;50.762;7.000;2023-04-03T08:13:01;15.60;48.70
14884;DHT22;7534;50.762;7.000;2023-04-03T08:15:27;14.80;50.80
14884;DHT22;7534;50.762;7.000;2023-04-03T08:17:54;15.00;50.20
14884;DHT22;7534;50.762;7.000;2023-04-03T08:20:20;15.80;48.30
14884;DHT22;7534;50.762;7.000;2023-04-03T08:22:46;15.40;48.50
14884;DHT22;7534;50.762;7.000;2023-04-03T08:25:12;15.50;48.70
14884;DHT22;7534;50.762;7.000;2023-04-03T08:27:38;16.20;48.10
14884;DHT22;7534;50.762;7.000;2023-04-03T08:30:05;16.20;46.40
14884;DHT22;7534;50.762;7.000;2023-04-03T08:32:33;16.00;46.20
14884;DHT22;7534;50.762;7.000;2023-04-03T08:35:01;15.90;46.40
14884;DHT22;7534;50.762;7.000;2023-04-03T08:37:28;15.20;47.10
14884;DHT22;7534;50.762;7.000;2023-04-03T08:39:54;14.80;48.30
14884;DHT22;7534;50.762;7.000;2023-04-03T08:45:43;14.40;49.50
14884;DHT22;7534;50.762;7.000;2023-04-03T08:48:35;14.80;50.10
14884;DHT22;7534;50.762;7.000;2023-04-03T08:51:10;14.50;50.40
14884;DHT22;7534;50.762;7.000;2023-04-03T08:53:55;14.60;50.50
14884;DHT22;7534;50.762;7.000;2023-04-03T08:56:25;14.50;49.10
14884;DHT22;7534;50.762;7.000;2023-04-03T08:59:06;14.70;48.00
14884;DHT22;7534;50.762;7.000;2023-04-03T09:01:41;14.40;48.50
14884;DHT22;7534;50.762;7.000;2023-04-03T09:04:13;14.10;49.10
14884;DHT22;7534;50.762;7.000;2023-04-03T09:06:44;14.00;48.10
14884;DHT22;7534;50.762;7.000;2023-04-03T09:09:32;13.80;49.10
14884;DHT22;7534;50.762;7.000;2023-04-03T09:12:12;13.30;49.30
14884;DHT22;7534;50.762;7.000;2023-04-03T09:15:06;13.30;50.20
14884;DHT22;7534;50.762;7.000;2023-04-03T09:18:02;13.50;49.60
14884;DHT22;7534;50.762;7.000;2023-04-03T09:23:47;14.10;48.30
14884;DHT22;7534;50.762;7.000;2023-04-03T09:26:25;14.00;46.80
14884;DHT22;7534;50.762;7.000;2023-04-03T09:28:59;13.60;47.80
14884;DHT22;7534;50.762;7.000;2023-04-03T09:31:31;13.50;49.60
14884;DHT22;7534;50.762;7.000;2023-04-03T09:34:08;13.40;48.50
14884;DHT22;7534;50.762;7.000;2023-04-03T09:36:44;12.70;48.70
14884;DHT22;7534;50.762;7.000;2023-04-03T09:39:16;12.90;49.50
14884;DHT22;7534;50.762;7.000;2023-04-03T09:42:03;12.50;47.90
14884;DHT22;7534;50.762;7.000;2023-04-03T09:44:33;12.60;50.80
14884;DHT22;7534;50.762;7.000;2023-04-03T09:47:26;12.60;51.70
14884;DHT22;7534;50.762;7.000;2023-04-03T09:52:39;13.20;47.60
14884;DHT22;7534;50.762;7.000;2023-04-03T09:55:20;12.60;47.30
14884;DHT22;7534;50.762;7.000;2023-04-03T09:58:01;12.30;49.80
14884;DHT22;7534;50.762;7.000;2023-04-03T10:00:40;12.70;48.10
14884;DHT22;7534;50.762;7.000;2023-04-03T10:03:27;12.30;48.00
14884;DHT22;7534;50.762;7.000;2023-04-03T10:05:54;12.30;49.50
14884;DHT22;7534;50.762;7.000;2023-04-03T10:08:33;12.40;49.40
14884;DHT22;7534;50.762;7.000;2023-04-03T10:11:17;12.90;48.90
14884;DHT22;7534;50.762;7.000;2023-04-03T10:13:52;12.70;46.50
14884;DHT22;7534;50.762;7.000;2023-04-03T10:16:45;12.70;46.90
14884;DHT22;7534;50.762;7.000;2023-04-03T10:19:36;12.30;44.60
14884;DHT22;7534;50.762;7.000;2023-04-03T10:22:27;12.20;47.00
14884;DHT22;7534;50.762;7.000;2023-04-03T10:25:14;11.90;47.80
14884;DHT22;7534;50.762;7.000;2023-04-03T10:28:03;12.00;48.70
14884;DHT22;7534;50.762;7.000;2023-04-03T10:30:49;12.10;49.60
14884;DHT22;7534;50.762;7.000;2023-04-03T10:39:26;11.60;48.90
14884;DHT22;7534;50.762;7.000;2023-04-03T10:42:04;11.50;49.10
14884;DHT22;7534;50.762;7.000;2023-04-03T10:48:07;10.80;50.50
14884;DHT22;7534;50.762;7.000;2023-04-03T10:50:58;10.30;52.60
14884;DHT22;7534;50.762;7.000;2023-04-03T10:53:45;10.10;52.50
14884;DHT22;7534;50.762;7.000;2023-04-03T11:02:32;10.20;50.60
14884;DHT22;7534;50.762;7.000;2023-04-03T11:10:58;10.50;50.90
14884;DHT22;7534;50.762;7.000;2023-04-03T11:13:40;10.60;50.80
14884;DHT22;7534;50.762;7.000;2023-04-03T11:16:25;10.70;50.00
14884;DHT22;7534;50.762;7.000;2023-04-03T11:21:56;10.40;47.40
14884;DHT22;7534;50.762;7.000;2023-04-03T11:24:28;10.40;48.60
14884;DHT22;7534;50.762;7.000;2023-04-03T11:26:58;10.60;46.90
14884;DHT22;7534;50.762;7.000;2023-04-03T11:29:33;10.70;48.00
14884;DHT22;7534;50.762;7.000;2023-04-03T11:35:07;10.60;45.50
14884;DHT22;7534;50.762;7.000;2023-04-03T11:37:39;10.80;43.80
14884;DHT22;7534;50.762;7.000;2023-04-03T11:40:24;10.50;44.50
14884;DHT22;7534;50.762;7.000;2023-04-03T11:45:28;10.70;47.80
14884;DHT22;7534;50.762;7.000;2023-04-03T11:48:29;10.80;44.90
14884;DHT22;7534;50.762;7.000;2023-04-03T11:51:42;10.80;43.50
14884;DHT22;7534;50.762;7.000;2023-04-03T11:53:54;10.70;43.30
14884;DHT22;7534;50.762;7.000;2023-04-03T11:56:58;10.90;43.20
14884;DHT22;7534;50.762;7.000;2023-04-03T11:59:24;11.10;43.90
14884;DHT22;7534;50.762;7.000;2023-04-03T12:01:56;11.10;42.10
14884;DHT22;7534;50.762;7.000;2023-04-03T12:04:27;11.10;42.00
14884;DHT22;7534;50.762;7.000;2023-04-03T12:07:14;11.20;41.80
14884;DHT22;7534;50.762;7.000;2023-04-03T12:12:30;11.30;44.30
14884;DHT22;7534;50.762;7.000;2023-04-03T12:15:41;11.40;46.20
14884;DHT22;7534;50.762;7.000;2023-04-03T12:18:41;11.40;45.50
14884;DHT22;7534;50.762;7.000;2023-04-03T12:21:09;11.10;44.70
14884;DHT22;7534;50.762;7.000;2023-04-03T12:24:02;11.20;44.70
14884;DHT22;7534;50.762;7.000;2023-04-03T12:38:35;11.70;41.40
14884;DHT22;7534;50.762;7.000;2023-04-03T12:41:27;11.80;42.30
14884;DHT22;7534;50.762;7.000;2023-04-03T12:44:22;11.60;41.70
14884;DHT22;7534;50.762;7.000;2023-04-03T12:47:16;11.60;41.40
14884;DHT22;7534;50.762;7.000;2023-04-03T12:49:49;11.60;43.60
14884;DHT22;7534;50.762;7.000;2023-04-03T12:52:30;11.70;41.90
14884;DHT22;7534;50.762;7.000;2023-04-03T12:55:01;11.60;41.70
14884;DHT22;7534;50.762;7.000;2023-04-03T12:57:30;11.50;41.10
14884;DHT22;7534;50.762;7.000;2023-04-03T12:59:58;11.40;40.80
14884;DHT22;7534;50.762;7.000;2023-04-03T13:02:31;11.30;41.50
14884;DHT22;7534;50.762;7.000;2023-04-03T13:05:07;11.50;43.10
14884;DHT22;7534;50.762;7.000;2023-04-03T13:07:37;11.90;42.50
14884;DHT22;7534;50.762;7.000;2023-04-03T13:12:50;12.10;39.30
14884;DHT22;7534;50.762;7.000;2023-04-03T13:15:24;12.30;41.00
14884;DHT22;7534;50.762;7.000;2023-04-03T13:17:53;12.30;41.20
14884;DHT22;7534;50.762;7.000;2023-04-03T13:20:31;12.40;39.90
14884;DHT22;7534;50.762;7.000;2023-04-03T13:23:07;12.20;40.50
14884;DHT22;7534;50.762;7.000;2023-04-03T13:25:42;12.10;37.90
14884;DHT22;7534;50.762;7.000;2023-04-03T13:28:13;12.00;39.90
14884;DHT22;7534;50.762;7.000;2023-04-03T13:33:54;12.00;39.80
14884;DHT22;7534;50.762;7.000;2023-04-03T13:36:33;11.70;38.50
14884;DHT22;7534;50.762;7.000;2023-04-03T13:39:28;11.80;39.20
14884;DHT22;7534;50.762;7.000;2023-04-03T13:41:57;12.00;37.50
14884;DHT22;7534;50.762;7.000;2023-04-03T13:44:39;12.10;37.90
14884;DHT22;7534;50.762;7.000;2023-04-03T13:47:18;12.10;38.30
14884;DHT22;7534;50.762;7.000;2023-04-03T13:50:03;12.40;39.70
14884;DHT22;7534;50.762;7.000;2023-04-03T13:53:11;12.40;38.30
14884;DHT22;7534;50.762;7.000;2023-04-03T13:58:32;12.50;37.80
14884;DHT22;7534;50.762;7.000;2023-04-03T14:01:17;12.50;39.00
14884;DHT22;7534;50.762;7.000;2023-04-03T14:03:58;12.40;38.30
14884;DHT22;7534;50.762;7.000;2023-04-03T14:06:26;12.10;39.40
14884;DHT22;7534;50.762;7.000;2023-04-03T14:08:53;12.10;40.90
14884;DHT22;7534;50.762;7.000;2023-04-03T14:11:29;12.00;39.50
14884;DHT22;7534;50.762;7.000;2023-04-03T14:14:00;12.10;39.50
14884;DHT22;7534;50.762;7.000;2023-04-03T14:16:32;12.00;37.20
14884;DHT22;7534;50.762;7.000;2023-04-03T14:19:03;12.00;39.90
14884;DHT22;7534;50.762;7.000;2023-04-03T14:21:28;11.80;40.80
14884;DHT22;7534;50.762;7.000;2023-04-03T14:23:54;12.00;41.20
14884;DHT22;7534;50.762;7.000;2023-04-03T14:26:23;12.20;40.20
14884;DHT22;7534;50.762;7.000;2023-04-03T14:28:54;12.30;39.80
14884;DHT22;7534;50.762;7.000;2023-04-03T14:31:23;12.10;38.70
14884;DHT22;7534;50.762;7.000;2023-04-03T14:33:49;12.10;39.10
14884;DHT22;7534;50.762;7.000;2023-04-03T14:36:20;12.20;40.00
14884;DHT22;7534;50.762;7.000;2023-04-03T14:38:49;12.10;38.80
14884;DHT22;7534;50.762;7.000;2023-04-03T14:41:19;12.10;39.00
14884;DHT22;7534;50.762;7.000;2023-04-03T14:43:47;12.00;38.90
14884;DHT22;7534;50.762;7.000;2023-04-03T14:46:20;12.00;40.00
14884;DHT22;7534;50.762;7.000;2023-04-03T14:48:49;12.00;40.30
14884;DHT22;7534;50.762;7.000;2023-04-03T14:51:15;12.10;41.10
14884;DHT22;7534;50.762;7.000;2023-04-03T14:53:42;12.10;40.10
14884;DHT22;7534;50.762;7.000;2023-04-03T14:56:17;12.20;41.90
14884;DHT22;7534;50.762;7.000;2023-04-03T14:58:48;12.20;39.70
14884;DHT22;7534;50.762;7.000;2023-04-03T15:01:18;12.20;40.10
14884;DHT22;7534;50.762;7.000;2023-04-03T15:03:44;12.30;39.80
14884;DHT22;7534;50.762;7.000;2023-04-03T15:06:13;12.50;39.40
14884;DHT22;7534;50.762;7.000;2023-04-03T15:08:41;12.60;40.10
14884;DHT22;7534;50.762;7.000;2023-04-03T15:11:09;12.80;37.90
14884;DHT22;7534;50.762;7.000;2023-04-03T15:13:36;12.80;38.30
14884;DHT22;7534;50.762;7.000;2023-04-03T15:16:02;12.70;38.50
14884;DHT22;7534;50.762;7.000;2023-04-03T15:18:35;12.40;38.70
14884;DHT22;7534;50.762;7.000;2023-04-03T15:21:03;12.00;38.80
14884;DHT22;7534;50.762;7.000;2023-04-03T15:23:30;12.30;39.60
14884;DHT22;7534;50.762;7.000;2023-04-03T15:25:56;12.50;40.00
14884;DHT22;7534;50.762;7.000;2023-04-03T15:28:37;12.40;39.30
14884;DHT22;7534;50.762;7.000;2023-04-03T15:31:06;12.40;37.90
14884;DHT22;7534;50.762;7.000;2023-04-03T15:33:33;12.30;39.00
14884;DHT22;7534;50.762;7.000;2023-04-03T15:36:00;12.20;40.40
14884;DHT22;7534;50.762;7.000;2023-04-03T15:38:26;12.20;39.70
14884;DHT22;7534;50.762;7.000;2023-04-03T15:40:53;12.20;39.40
14884;DHT22;7534;50.762;7.000;2023-04-03T15:43:20;12.00;39.60
14884;DHT22;7534;50.762;7.000;2023-04-03T15:45:46;12.00;39.70
14884;DHT22;7534;50.762;7.000;2023-04-03T15:48:13;12.00;39.70
14884;DHT22;7534;50.762;7.000;2023-04-03T15:50:40;12.10;40.90
14884;DHT22;7534;50.762;7.000;2023-04-03T15:53:06;12.20;39.90
14884;DHT22;7534;50.762;7.000;2023-04-03T15:55:34;12.00;39.10
14884;DHT22;7534;50.762;7.000;2023-04-03T15:58:02;12.10;40.70
14884;DHT22;7534;50.762;7.000;2023-04-03T16:00:29;12.20;40.10
14884;DHT22;7534;50.762;7.000;2023-04-03T16:02:58;12.30;39.80
14884;DHT22;7534;50.762;7.000;2023-04-03T16:05:30;12.20;39.40
14884;DHT22;7534;50.762;7.000;2023-04-03T16:07:58;12.20;39.90
14884;DHT22;7534;50.762;7.000;2023-04-03T16:10:25;12.20;39.70
14884;DHT22;7534;50.762;7.000;2023-04-03T16:12:51;12.00;40.30
14884;DHT22;7534;50.762;7.000;2023-04-03T16:15:17;12.10;41.50
14884;DHT22;7534;50.762;7.000;2023-04-03T16:17:44;12.10;41.00
14884;DHT22;7534;50.762;7.000;2023-04-03T16:20:11;12.10;41.00
14884;DHT22;7534;50.762;7.000;2023-04-03T16:22:38;12.10;40.90
14884;DHT22;7534;50.762;7.000;2023-04-03T16:25:06;12.00;42.50
14884;DHT22;7534;50.762;7.000;2023-04-03T16:27:33;12.00;40.90
14884;DHT22;7534;50.762;7.000;2023-04-03T16:29:59;11.70;41.20
14884;DHT22;7534;50.762;7.000;2023-04-03T16:32:28;11.80;41.90
14884;DHT22;7534;50.762;7.000;2023-04-03T16:34:56;11.80;41.60
14884;DHT22;7534;50.762;7.000;2023-04-03T16:37:22;11.60;41.80
14884;DHT22;7534;50.762;7.000;2023-04-03T16:39:48;11.40;42.30
14884;DHT22;7534;50.762;7.000;2023-04-03T16:42:14;11.20;41.40
14884;DHT22;7534;50.762;7.000;2023-04-03T16:44:40;11.00;41.70
14884;DHT22;7534;50.762;7.000;2023-04-03T16:47:06;10.90;42.60
14884;DHT22;7534;50.762;7.000;2023-04-03T16:49:33;11.00;44.30
14884;DHT22;7534;50.762;7.000;2023-04-03T16:52:10;11.00;44.40
14884;DHT22;7534;50.762;7.000;2023-04-03T16:54:35;10.80;43.40
14884;DHT22;7534;50.762;7.000;2023-04-03T16:57:01;10.80;43.30
14884;DHT22;7534;50.762;7.000;2023-04-03T16:59:27;10.70;43.30
14884;DHT22;7534;50.762;7.000;2023-04-03T17:01:53;10.50;43.30
14884;DHT22;7534;50.762;7.000;2023-04-03T17:04:19;10.50;44.10
14884;DHT22;7534;50.762;7.000;2023-04-03T17:06:44;10.50;44.70
14884;DHT22;7534;50.762;7.000;2023-04-03T17:09:11;10.20;44.70
14884;DHT22;7534;50.762;7.000;2023-04-03T17:11:37;10.10;44.40
14884;DHT22;7534;50.762;7.000;2023-04-03T17:14:04;10.10;45.50
14884;DHT22;7534;50.762;7.000;2023-04-03T17:16:31;9.90;45.40
14884;DHT22;7534;50.762;7.000;2023-04-03T17:18:59;9.80;45.90
14884;DHT22;7534;50.762;7.000;2023-04-03T17:21:25;9.70;46.20